Time;durP1;ratioP1;P1;durP2;ratioP2;P2;SDS_P1;SDS_P2;PMS_P1;PMS_P2;Temp;Humidity;BMP_temperature;BMP_pressure;BME280_temperature;BME280_humidity;BME280_pressure;Samples;Min_cycle;Max_cycle;Signal;HPM_P1;HPM_P2
2023/10/28 00:00:17;;;;;;;8.95;5.22;;;9.90;93.70;;;;;;5029943;28;20045;-34
2023/10/28 00:02:43;;;;;;;11.10;5.47;;;9.90;93.80;;;;;;5029483;28;20053;-34
2023/10/28 00:05:09;;;;;;;9.13;5.68;;;9.90;93.70;;;;;;5029629;28;20041;-32
2023/10/28 00:07:35;;;;;;;10.43;5.70;;;9.90;93.70;;;;;;5029781;28;20029;-32
2023/10/28 00:10:02;;;;;;;8.50;5.88;;;9.90;93.70;;;;;;5029671;28;20029;-29
2023/10/28 00:12:28;;;;;;;9.00;5.72;;;9.90;93.70;;;;;;5029606;28;20056;-30
2023/10/28 00:14:54;;;;;;;9.95;5.85;;;9.90;93.80;;;;;;5029677;28;20053;-31
2023/10/28 00:17:20;;;;;;;8.75;5.80;;;9.90;93.80;;;;;;5029493;28;20030;-31
2023/10/28 00:19:46;;;;;;;9.27;5.63;;;9.90;93.70;;;;;;5029511;28;20116;-29
2023/10/28 00:22:12;;;;;;;11.13;5.97;;;9.90;93.80;;;;;;5029646;28;20389;-32
2023/10/28 00:24:40;;;;;;;9.38;5.35;;;9.90;93.80;;;;;;5029769;28;20029;-32
2023/10/28 00:27:07;;;;;;;8.48;5.20;;;9.90;93.70;;;;;;5028242;28;20057;-29
2023/10/28 00:29:32;;;;;;;7.28;4.97;;;9.90;93.70;;;;;;5029518;28;20073;-30
2023/10/28 00:31:58;;;;;;;7.88;5.28;;;9.90;93.70;;;;;;5029164;28;20400;-31
2023/10/28 00:34:23;;;;;;;10.52;5.35;;;10.00;93.70;;;;;;5029237;28;20553;-31
2023/10/28 00:36:49;;;;;;;9.60;5.10;;;10.00;93.70;;;;;;5028106;28;20053;-31
2023/10/28 00:39:14;;;;;;;10.63;5.30;;;10.00;93.70;;;;;;5029417;28;20045;-30
2023/10/28 00:41:40;;;;;;;10.07;4.75;;;10.00;93.70;;;;;;5027661;28;20029;-29
2023/10/28 00:44:05;;;;;;;11.23;5.00;;;10.00;93.70;;;;;;5029217;28;20030;-30
2023/10/28 00:46:31;;;;;;;9.23;4.97;;;10.00;93.70;;;;;;5029181;28;20025;-33
2023/10/28 00:48:57;;;;;;;9.57;4.65;;;10.00;93.70;;;;;;5029268;28;20033;-31
2023/10/28 00:51:23;;;;;;;7.57;4.18;;;10.10;93.70;;;;;;5029014;28;20068;-30
2023/10/28 00:53:49;;;;;;;7.43;4.60;;;10.10;93.70;;;;;;5030609;28;20402;-34
2023/10/28 00:56:17;;;;;;;8.07;4.63;;;10.10;93.70;;;;;;5033050;28;20028;-32
2023/10/28 00:58:45;;;;;;;9.57;4.38;;;10.10;93.70;;;;;;5032575;28;20017;-34
2023/10/28 01:01:13;;;;;;;7.03;4.07;;;10.20;93.90;;;;;;5032250;28;20032;-31
2023/10/28 01:03:42;;;;;;;8.70;4.45;;;10.20;93.60;;;;;;5032826;28;20101;-30
2023/10/28 01:06:12;;;;;;;8.98;4.50;;;10.20;93.70;;;;;;5032596;28;20029;-31
2023/10/28 01:08:38;;;;;;;8.77;4.10;;;10.20;93.70;;;;;;5032500;28;20033;-31
2023/10/28 01:11:04;;;;;;;9.25;4.22;;;10.30;93.70;;;;;;5032258;28;20032;-32
2023/10/28 01:13:30;;;;;;;9.55;4.15;;;10.40;93.70;;;;;;5032687;28;20018;-29
2023/10/28 01:15:56;;;;;;;7.10;4.20;;;10.40;93.60;;;;;;5032435;28;20539;-30
2023/10/28 01:18:21;;;;;;;8.32;3.95;;;10.50;93.60;;;;;;5032472;28;20104;-30
2023/10/28 01:20:47;;;;;;;7.38;4.35;;;10.50;93.60;;;;;;5031978;28;20402;-29
2023/10/28 01:23:12;;;;;;;13.77;4.15;;;10.50;93.60;;;;;;5032267;28;20325;-29
2023/10/28 01:25:38;;;;;;;10.35;3.80;;;10.60;93.60;;;;;;5032385;28;20021;-33
2023/10/28 01:28:04;;;;;;;7.35;3.80;;;10.70;93.50;;;;;;5032037;28;20063;-33
2023/10/28 01:30:30;;;;;;;11.75;4.10;;;10.70;93.50;;;;;;5032005;28;20048;-30
2023/10/28 01:32:56;;;;;;;9.52;3.55;;;10.70;93.50;;;;;;5032308;28;20485;-30
2023/10/28 01:35:21;;;;;;;8.68;3.20;;;10.70;93.50;;;;;;5032290;28;20055;-28
2023/10/28 01:37:47;;;;;;;7.35;3.47;;;10.80;93.50;;;;;;5031894;28;20104;-34
2023/10/28 01:40:13;;;;;;;7.45;3.38;;;10.80;93.50;;;;;;5032111;28;20041;-30
2023/10/28 01:42:40;;;;;;;9.32;3.45;;;10.80;93.50;;;;;;5031624;28;20486;-30
2023/10/28 01:45:09;;;;;;;5.43;3.10;;;10.90;93.50;;;;;;5031702;28;20041;-31
2023/10/28 01:47:35;;;;;;;5.93;2.97;;;10.90;93.50;;;;;;5031941;28;20025;-31
2023/10/28 01:50:00;;;;;;;8.07;3.45;;;10.90;93.50;;;;;;5031652;28;20477;-31
2023/10/28 01:52:26;;;;;;;8.10;3.28;;;10.90;93.50;;;;;;5031593;28;20024;-31
2023/10/28 01:54:51;;;;;;;9.68;3.47;;;11.00;93.50;;;;;;5031617;28;20149;-29
2023/10/28 01:57:17;;;;;;;7.00;3.58;;;11.00;93.50;;;;;;5032069;28;20030;-29
2023/10/28 01:59:46;;;;;;;5.93;2.97;;;11.00;93.50;;;;;;5031667;28;20045;-31
2023/10/28 02:02:11;;;;;;;5.65;3.03;;;11.00;93.50;;;;;;5031304;28;20029;-31
2023/10/28 02:04:37;;;;;;;7.88;3.70;;;11.00;93.50;;;;;;5031191;28;20030;-30
2023/10/28 02:07:04;;;;;;;9.38;3.40;;;11.00;93.50;;;;;;5031381;28;20041;-33
2023/10/28 02:09:32;;;;;;;8.47;2.90;;;11.10;93.50;;;;;;5031535;28;20385;-30
2023/10/28 02:12:01;;;;;;;7.07;2.95;;;11.00;93.50;;;;;;5031388;28;20496;-41
2023/10/28 02:14:28;;;;;;;6.55;2.97;;;11.00;93.50;;;;;;5031536;28;20097;-30
2023/10/28 02:16:55;;;;;;;6.38;3.10;;;11.00;93.50;;;;;;5031361;28;20033;-31
2023/10/28 02:19:21;;;;;;;4.40;2.53;;;11.10;93.50;;;;;;5031121;28;20028;-30
2023/10/28 02:21:48;;;;;;;7.60;3.20;;;11.10;93.50;;;;;;5029580;28;20029;-30
2023/10/28 02:24:13;;;;;;;6.35;2.95;;;11.10;93.50;;;;;;5031305;28;20680;-29
2023/10/28 02:26:39;;;;;;;7.13;2.63;;;11.10;93.50;;;;;;5031203;28;20022;-30
2023/10/28 02:29:06;;;;;;;7.78;3.13;;;11.10;93.50;;;;;;5030734;28;20045;-31
2023/10/28 02:31:32;;;;;;;5.60;2.92;;;11.10;93.50;;;;;;5031016;28;20026;-29
2023/10/28 02:33:57;;;;;;;6.30;2.65;;;11.10;93.50;;;;;;5030858;28;20393;-32
2023/10/28 02:36:23;;;;;;;8.35;3.00;;;11.20;93.50;;;;;;5030916;28;20021;-30
2023/10/28 02:38:48;;;;;;;6.65;2.95;;;11.20;93.50;;;;;;5030724;28;20111;-30
2023/10/28 02:41:14;;;;;;;7.85;3.15;;;11.20;93.50;;;;;;5030449;28;20029;-33
2023/10/28 02:43:40;;;;;;;11.68;2.80;;;11.20;93.50;;;;;;5029197;28;20087;-33
2023/10/28 02:46:06;;;;;;;5.05;2.70;;;11.20;93.50;;;;;;5030396;28;20105;-31
2023/10/28 02:48:32;;;;;;;4.22;2.60;;;11.20;93.50;;;;;;5030955;28;20470;-30
2023/10/28 02:51:07;;;;;;;5.20;2.90;;;11.20;93.50;;;;;;5030663;28;20082;-32
2023/10/28 02:53:33;;;;;;;4.70;2.50;;;11.10;93.50;;;;;;5030604;28;20029;-30
2023/10/28 02:56:05;;;;;;;5.72;2.60;;;11.10;93.50;;;;;;5030755;28;20446;-41
2023/10/28 02:58:31;;;;;;;6.05;2.67;;;11.20;93.50;;;;;;5030530;28;20018;-34
2023/10/28 03:00:57;;;;;;;4.78;2.45;;;11.10;93.50;;;;;;5030173;28;20032;-32
2023/10/28 03:03:23;;;;;;;5.63;2.53;;;11.10;93.50;;;;;;5030838;28;20029;-32
2023/10/28 03:05:52;;;;;;;8.98;2.72;;;11.10;93.50;;;;;;5030333;28;20033;-32
2023/10/28 03:08:19;;;;;;;4.97;2.53;;;11.10;93.50;;;;;;5030279;28;20069;-30
2023/10/28 03:10:44;;;;;;;5.55;2.67;;;11.00;93.50;;;;;;5030054;28;20025;-30
2023/10/28 03:13:10;;;;;;;5.13;2.63;;;11.10;93.50;;;;;;5030238;28;20509;-30
2023/10/28 03:15:36;;;;;;;7.20;2.70;;;11.10;93.50;;;;;;5030205;28;20028;-33
2023/10/28 03:18:02;;;;;;;5.78;2.70;;;11.10;93.60;;;;;;5030205;28;20489;-32
2023/10/28 03:20:27;;;;;;;9.02;2.53;;;11.10;93.60;;;;;;5030149;28;20108;-29
2023/10/28 03:22:53;;;;;;;4.15;2.45;;;11.10;93.60;;;;;;5030402;28;20056;-31
2023/10/28 03:25:18;;;;;;;5.30;2.25;;;11.10;93.60;;;;;;5030145;28;20148;-32
2023/10/28 03:27:46;;;;;;;4.47;2.30;;;11.10;93.50;;;;;;5030344;28;20482;-32
2023/10/28 03:30:11;;;;;;;3.03;2.10;;;11.10;93.50;;;;;;5029715;28;20038;-33
2023/10/28 03:32:37;;;;;;;4.35;2.47;;;11.10;93.50;;;;;;5029754;28;20404;-32
2023/10/28 03:35:03;;;;;;;5.43;2.22;;;11.10;93.50;;;;;;5029857;28;20034;-29
2023/10/28 03:37:30;;;;;;;5.05;2.72;;;11.10;93.50;;;;;;5030067;28;20385;-33
2023/10/28 03:39:56;;;;;;;5.82;2.03;;;11.10;93.50;;;;;;5029744;28;20021;-33
2023/10/28 03:42:21;;;;;;;8.35;2.47;;;11.20;93.50;;;;;;5029705;28;20444;-33
2023/10/28 03:44:47;;;;;;;5.97;2.45;;;11.10;93.50;;;;;;5029671;28;20489;-33
2023/10/28 03:47:12;;;;;;;5.88;2.42;;;11.10;93.50;;;;;;5029556;28;20397;-30
2023/10/28 03:49:38;;;;;;;2.60;1.90;;;11.10;93.40;;;;;;5029802;28;20033;-35
2023/10/28 03:52:04;;;;;;;6.30;2.53;;;11.10;93.50;;;;;;5029563;28;20049;-30
2023/10/28 03:54:29;;;;;;;4.32;2.05;;;11.10;93.50;;;;;;5029595;28;20108;-34
2023/10/28 03:56:55;;;;;;;5.25;2.30;;;11.10;93.50;;;;;;5029618;28;20033;-33
2023/10/28 03:59:21;;;;;;;5.93;2.17;;;11.10;93.50;;;;;;5028499;28;20149;-33
2023/10/28 04:01:47;;;;;;;5.00;2.38;;;11.00;93.50;;;;;;5029806;28;20026;-34
2023/10/28 04:04:12;;;;;;;3.45;2.10;;;11.00;93.50;;;;;;5029591;28;20433;-33
2023/10/28 04:06:38;;;;;;;4.95;2.38;;;11.10;93.50;;;;;;5029420;28;20037;-33
2023/10/28 04:09:03;;;;;;;4.78;2.03;;;11.00;93.50;;;;;;5029575;28;20040;-33
2023/10/28 04:11:29;;;;;;;4.88;2.10;;;11.10;93.50;;;;;;5029428;28;20030;-33
2023/10/28 04:13:55;;;;;;;5.32;1.92;;;11.00;93.50;;;;;;5029900;28;20025;-36
2023/10/28 04:16:21;;;;;;;3.75;1.90;;;11.10;93.50;;;;;;5029408;28;20120;-31
2023/10/28 04:18:48;;;;;;;2.70;1.60;;;11.10;93.50;;;;;;5029228;28;20036;-34
2023/10/28 04:21:13;;;;;;;2.38;1.60;;;11.10;93.50;;;;;;5029023;28;20109;-32
2023/10/28 04:23:39;;;;;;;2.35;1.50;;;11.10;93.50;;;;;;5029620;28;20104;-32
2023/10/28 04:26:05;;;;;;;2.60;1.42;;;11.10;93.50;;;;;;5029330;28;20437;-37
2023/10/28 04:28:30;;;;;;;3.45;1.90;;;11.10;93.50;;;;;;5030285;28;20033;-31
2023/10/28 04:30:57;;;;;;;6.25;1.60;;;11.10;93.50;;;;;;5033228;28;20045;-31
2023/10/28 04:33:24;;;;;;;2.40;1.75;;;11.10;93.40;;;;;;5033465;28;20481;-35
2023/10/28 04:35:52;;;;;;;4.25;1.83;;;11.10;93.40;;;;;;5033196;28;20106;-37
2023/10/28 04:38:18;;;;;;;2.20;1.60;;;11.10;93.40;;;;;;5033101;28;20029;-34
2023/10/28 04:40:43;;;;;;;3.42;1.80;;;11.10;93.40;;;;;;5032757;28;20025;-31
2023/10/28 04:43:09;;;;;;;4.53;1.80;;;11.10;93.40;;;;;;5032892;28;20060;-35
2023/10/28 04:45:34;;;;;;;3.38;2.00;;;11.10;93.40;;;;;;5031440;28;20029;-30
2023/10/28 04:48:00;;;;;;;3.00;1.77;;;11.10;93.40;;;;;;5032734;28;20025;-29
2023/10/28 04:50:26;;;;;;;2.90;1.88;;;11.10;93.40;;;;;;5032966;28;20045;-34
2023/10/28 04:52:51;;;;;;;4.40;2.25;;;11.10;93.40;;;;;;5032891;28;20037;-31
2023/10/28 04:55:17;;;;;;;4.38;2.05;;;11.10;93.40;;;;;;5032874;28;20030;-33
2023/10/28 04:57:42;;;;;;;4.18;2.22;;;11.10;93.30;;;;;;5032492;28;20040;-34
2023/10/28 05:00:08;;;;;;;4.20;1.85;;;11.10;93.30;;;;;;5032574;28;20029;-30
2023/10/28 05:02:34;;;;;;;3.60;1.90;;;11.10;93.30;;;;;;5032406;28;20030;-40
2023/10/28 05:05:03;;;;;;;2.78;1.90;;;11.10;93.30;;;;;;5032896;28;20430;-31
2023/10/28 05:07:29;;;;;;;2.97;1.98;;;11.10;93.30;;;;;;5032784;28;20414;-32
2023/10/28 05:09:55;;;;;;;3.72;2.00;;;11.10;93.30;;;;;;5032558;28;20393;-30
2023/10/28 05:12:20;;;;;;;2.95;2.00;;;11.10;93.60;;;;;;5032213;28;20025;-33
2023/10/28 05:14:46;;;;;;;3.95;1.90;;;11.10;93.30;;;;;;5032387;28;20022;-31
2023/10/28 05:17:11;;;;;;;4.15;2.05;;;11.10;93.30;;;;;;5032137;28;20025;-36
2023/10/28 05:19:37;;;;;;;2.83;2.00;;;11.10;93.30;;;;;;5030681;28;20052;-31
2023/10/28 05:22:03;;;;;;;3.15;2.20;;;11.10;93.30;;;;;;5032292;28;20057;-29
2023/10/28 05:24:30;;;;;;;4.05;2.03;;;11.10;93.30;;;;;;5032519;28;20112;-34
2023/10/28 05:26:57;;;;;;;3.15;2.15;;;11.10;93.30;;;;;;5031990;28;20021;-30
2023/10/28 05:29:22;;;;;;;4.13;2.13;;;11.10;93.30;;;;;;5031983;28;20498;-30
2023/10/28 05:31:48;;;;;;;3.50;2.30;;;11.10;93.30;;;;;;5032004;28;20105;-34
2023/10/28 05:34:13;;;;;;;3.05;1.70;;;11.10;93.30;;;;;;5032078;28;20390;-34
2023/10/28 05:36:39;;;;;;;3.33;2.10;;;11.10;93.30;;;;;;5031955;28;20017;-33
2023/10/28 05:39:05;;;;;;;2.70;2.10;;;11.10;93.30;;;;;;5031947;28;20432;-32
2023/10/28 05:41:30;;;;;;;3.55;1.92;;;11.10;93.20;;;;;;5031572;28;20389;-31
2023/10/28 05:43:56;;;;;;;2.60;2.00;;;11.20;93.30;;;;;;5031886;28;20025;-35
2023/10/28 05:46:25;;;;;;;5.10;2.50;;;11.20;93.30;;;;;;5031588;28;20025;-33
2023/10/28 05:48:50;;;;;;;4.13;2.50;;;11.10;93.20;;;;;;5031722;28;20033;-33
2023/10/28 05:51:17;;;;;;;2.97;2.25;;;11.20;93.30;;;;;;5031638;28;20029;-30
2023/10/28 05:53:42;;;;;;;5.47;2.17;;;11.20;93.30;;;;;;5031867;28;20018;-31
2023/10/28 05:56:08;;;;;;;6.75;2.28;;;11.10;93.20;;;;;;5031630;28;20457;-30
2023/10/28 05:58:34;;;;;;;4.30;2.30;;;11.10;93.20;;;;;;5031570;28;20018;-30
2023/10/28 06:00:59;;;;;;;4.25;2.17;;;11.10;93.20;;;;;;5029917;28;20038;-33
2023/10/28 06:03:26;;;;;;;3.22;2.10;;;11.20;93.20;;;;;;5032093;28;20113;-29
2023/10/28 06:05:52;;;;;;;3.90;2.10;;;11.20;93.30;;;;;;5031291;28;20037;-29
2023/10/28 06:08:18;;;;;;;2.88;1.92;;;11.20;93.20;;;;;;5031343;28;20029;-31
2023/10/28 06:10:47;;;;;;;3.78;2.28;;;11.20;93.30;;;;;;5031088;28;20159;-35
2023/10/28 06:13:14;;;;;;;3.75;2.05;;;11.20;93.20;;;;;;5031323;28;20024;-30
2023/10/28 06:15:41;;;;;;;6.22;2.50;;;11.20;93.30;;;;;;5031442;28;20474;-34
2023/10/28 06:18:07;;;;;;;3.95;2.25;;;11.20;93.30;;;;;;5031384;28;20499;-30
2023/10/28 06:20:33;;;;;;;3.75;2.33;;;11.20;93.20;;;;;;5031202;28;20099;-32
2023/10/28 06:22:59;;;;;;;3.33;2.38;;;11.20;93.20;;;;;;5031423;28;20037;-32
2023/10/28 06:25:25;;;;;;;5.82;2.33;;;11.20;93.20;;;;;;5031396;28;20389;-30
2023/10/28 06:27:51;;;;;;;4.93;2.63;;;11.20;93.20;;;;;;5031110;28;20030;-38
2023/10/28 06:30:17;;;;;;;3.50;2.28;;;11.20;93.20;;;;;;5030634;28;20072;-30
2023/10/28 06:32:42;;;;;;;5.05;2.70;;;11.10;93.20;;;;;;5031336;28;20029;-30
2023/10/28 06:35:08;;;;;;;4.32;2.42;;;11.10;93.20;;;;;;5030953;28;20531;-30
2023/10/28 06:37:33;;;;;;;5.07;2.22;;;11.20;93.20;;;;;;5030718;28;20108;-31
2023/10/28 06:39:59;;;;;;;4.72;2.20;;;11.10;93.20;;;;;;5030869;28;20068;-30
2023/10/28 06:42:25;;;;;;;3.45;2.30;;;11.10;93.20;;;;;;5030399;28;20036;-31
2023/10/28 06:44:51;;;;;;;5.97;2.15;;;11.20;93.20;;;;;;5030928;28;20101;-33
2023/10/28 06:47:17;;;;;;;4.57;2.22;;;11.20;93.20;;;;;;5030373;28;20055;-31
2023/10/28 06:49:43;;;;;;;4.05;2.30;;;11.20;93.20;;;;;;5030718;28;20026;-30
2023/10/28 06:52:09;;;;;;;3.88;2.20;;;11.20;93.20;;;;;;5029459;28;20398;-31
2023/10/28 06:54:34;;;;;;;3.63;2.38;;;11.20;93.20;;;;;;5030714;28;20053;-29
2023/10/28 06:57:00;;;;;;;3.35;2.10;;;11.20;93.20;;;;;;5030320;28;20034;-30
2023/10/28 06:59:26;;;;;;;2.75;2.42;;;11.20;93.20;;;;;;5029120;28;20038;-31
2023/10/28 07:01:52;;;;;;;4.18;2.47;;;11.20;93.20;;;;;;5030463;28;20033;-32
2023/10/28 07:04:18;;;;;;;5.40;2.55;;;11.20;93.20;;;;;;5028952;28;20168;-32
2023/10/28 07:06:43;;;;;;;4.35;2.75;;;11.20;93.10;;;;;;5030355;28;20492;-32
2023/10/28 07:09:09;;;;;;;5.88;2.60;;;11.20;93.10;;;;;;5030218;28;20265;-35
2023/10/28 07:11:35;;;;;;;4.03;2.60;;;11.20;93.10;;;;;;5030274;28;20048;-34
2023/10/28 07:14:00;;;;;;;6.43;2.63;;;11.20;93.10;;;;;;5030141;28;20222;-31
2023/10/28 07:16:27;;;;;;;4.50;2.55;;;11.20;93.10;;;;;;5028870;28;20049;-32
2023/10/28 07:18:53;;;;;;;3.60;2.40;;;11.30;93.10;;;;;;5030214;28;20025;-34
2023/10/28 07:21:18;;;;;;;4.95;2.50;;;11.30;93.10;;;;;;5030219;28;20388;-32
2023/10/28 07:23:44;;;;;;;5.65;2.25;;;11.30;93.10;;;;;;5030283;28;20025;-32
2023/10/28 07:26:12;;;;;;;3.65;2.00;;;11.30;93.10;;;;;;5029831;28;20109;-35
2023/10/28 07:28:41;;;;;;;4.15;2.10;;;11.40;93.10;;;;;;5030426;28;20033;-32
2023/10/28 07:31:06;;;;;;;6.00;2.40;;;11.40;93.10;;;;;;5029714;28;20060;-34
2023/10/28 07:33:33;;;;;;;3.33;2.20;;;11.40;93.10;;;;;;5028459;28;20018;-34
2023/10/28 07:36:02;;;;;;;4.05;2.33;;;11.50;93.10;;;;;;5030137;28;20055;-31
2023/10/28 07:38:28;;;;;;;4.75;2.20;;;11.40;93.10;;;;;;5029709;28;20056;-32
2023/10/28 07:40:55;;;;;;;4.18;1.95;;;11.50;93.00;;;;;;5029826;28;20433;-33
2023/10/28 07:43:20;;;;;;;3.47;1.95;;;11.50;93.00;;;;;;5030043;28;20033;-31
2023/10/28 07:45:46;;;;;;;4.20;2.15;;;11.50;92.90;;;;;;5029625;28;20037;-36
2023/10/28 07:48:12;;;;;;;3.60;2.20;;;11.50;93.00;;;;;;5029649;28;20029;-30
2023/10/28 07:50:39;;;;;;;4.22;2.40;;;11.50;93.00;;;;;;5030063;28;20381;-32
2023/10/28 07:53:05;;;;;;;6.43;2.10;;;11.50;93.00;;;;;;5029662;28;20030;-31
2023/10/28 07:55:31;;;;;;;5.13;2.22;;;11.50;93.00;;;;;;5029939;28;20025;-30
2023/10/28 07:57:57;;;;;;;3.47;1.90;;;11.60;93.00;;;;;;5028297;28;20107;-31
2023/10/28 08:00:23;;;;;;;3.75;1.90;;;11.60;93.00;;;;;;5029895;28;20144;-33
2023/10/28 08:02:49;;;;;;;3.40;1.88;;;11.60;93.00;;;;;;5030917;28;20036;-34
2023/10/28 08:05:15;;;;;;;4.22;1.98;;;11.60;93.00;;;;;;5033694;28;20030;-30
2023/10/28 08:07:41;;;;;;;5.47;1.95;;;11.60;92.90;;;;;;5033463;28;20030;-29
2023/10/28 08:10:07;;;;;;;3.60;2.20;;;11.70;92.90;;;;;;5033571;28;20116;-30
2023/10/28 08:12:33;;;;;;;5.43;2.03;;;11.70;92.90;;;;;;5033372;28;20036;-31
2023/10/28 08:15:00;;;;;;;3.13;1.90;;;11.70;92.90;;;;;;5033781;28;20079;-32
2023/10/28 08:17:26;;;;;;;6.20;2.60;;;11.80;92.90;;;;;;5033558;28;20026;-29
2023/10/28 08:19:51;;;;;;;4.97;2.10;;;11.80;92.90;;;;;;5033777;28;20099;-33
2023/10/28 08:22:17;;;;;;;3.65;2.10;;;11.70;92.80;;;;;;5033404;28;20026;-31
2023/10/28 08:24:43;;;;;;;2.72;1.95;;;11.80;92.90;;;;;;5033267;28;20109;-31
2023/10/28 08:27:09;;;;;;;5.15;2.22;;;11.80;92.90;;;;;;5033443;28;20075;-29
2023/10/28 08:29:35;;;;;;;5.68;2.17;;;11.80;92.90;;;;;;5033060;28;20429;-29
2023/10/28 08:32:01;;;;;;;4.85;2.10;;;11.80;92.90;;;;;;5033544;28;20471;-34
2023/10/28 08:34:26;;;;;;;3.72;2.35;;;11.80;92.90;;;;;;5033318;28;20030;-31
2023/10/28 08:36:52;;;;;;;2.75;2.00;;;11.90;92.90;;;;;;5033701;28;20470;-30
2023/10/28 08:39:19;;;;;;;4.07;2.40;;;11.90;92.90;;;;;;5033101;28;20036;-30
2023/10/28 08:41:46;;;;;;;7.25;2.25;;;11.90;92.90;;;;;;5033516;28;20233;-30
2023/10/28 08:44:14;;;;;;;5.47;2.30;;;11.90;93.20;;;;;;5033186;28;20555;-32
2023/10/28 08:46:40;;;;;;;4.32;2.20;;;11.90;92.80;;;;;;5032924;28;20122;-31
2023/10/28 08:49:08;;;;;;;4.05;2.00;;;11.90;92.80;;;;;;5032945;28;20497;-31
2023/10/28 08:51:36;;;;;;;2.45;2.00;;;12.00;92.90;;;;;;5032895;28;20040;-29
2023/10/28 08:54:04;;;;;;;7.18;2.30;;;12.00;92.90;;;;;;5032722;28;20104;-35
2023/10/28 08:56:34;;;;;;;5.80;1.90;;;12.00;92.90;;;;;;5033105;28;20040;-33
2023/10/28 08:58:59;;;;;;;6.95;2.10;;;12.00;92.80;;;;;;5033010;28;20401;-31
2023/10/28 09:01:27;;;;;;;6.40;1.92;;;12.00;92.80;;;;;;5032498;28;20028;-34
2023/10/28 09:03:55;;;;;;;5.60;2.10;;;12.10;92.80;;;;;;5033122;28;20117;-31
2023/10/28 09:06:21;;;;;;;4.22;2.10;;;12.10;92.80;;;;;;5032958;28;20467;-32
2023/10/28 09:08:47;;;;;;;3.47;1.65;;;12.20;92.80;;;;;;5033106;28;20029;-31
2023/10/28 09:11:12;;;;;;;2.80;1.73;;;12.20;92.70;;;;;;5032402;28;20508;-31
2023/10/28 09:13:42;;;;;;;4.53;1.80;;;12.30;92.70;;;;;;5032303;28;20316;-32
2023/10/28 09:16:08;;;;;;;3.17;1.70;;;12.40;92.70;;;;;;5031984;28;20572;-31
2023/10/28 09:18:38;;;;;;;7.40;1.88;;;12.50;92.60;;;;;;5032691;28;20033;-32
2023/10/28 09:21:05;;;;;;;3.63;1.80;;;12.50;92.80;;;;;;5032192;28;20041;-32
2023/10/28 09:23:31;;;;;;;2.95;1.42;;;12.60;92.50;;;;;;5032414;28;20035;-32
2023/10/28 09:25:57;;;;;;;2.78;1.63;;;12.70;92.50;;;;;;5032414;28;20473;-31
2023/10/28 09:28:22;;;;;;;6.03;2.05;;;12.70;92.40;;;;;;5032269;28;20417;-30
2023/10/28 09:30:48;;;;;;;2.30;1.70;;;12.70;92.40;;;;;;5031669;28;20052;-33
2023/10/28 09:33:15;;;;;;;4.78;1.75;;;12.80;92.40;;;;;;5032670;28;20033;-30
2023/10/28 09:35:43;;;;;;;9.23;1.85;;;12.80;92.30;;;;;;5032303;28;20025;-34
2023/10/28 09:38:11;;;;;;;3.75;2.17;;;12.80;92.30;;;;;;5032141;28;20029;-34
2023/10/28 09:40:37;;;;;;;3.13;1.80;;;12.80;92.30;;;;;;5032258;28;20025;-31
2023/10/28 09:43:04;;;;;;;4.93;1.77;;;12.80;92.30;;;;;;5032098;28;20082;-41
2023/10/28 09:45:30;;;;;;;3.33;1.58;;;12.80;92.30;;;;;;5032265;28;20025;-34
2023/10/28 09:47:57;;;;;;;3.13;1.67;;;12.80;92.30;;;;;;5031880;28;20123;-30
2023/10/28 09:50:27;;;;;;;3.67;1.58;;;12.90;92.30;;;;;;5032043;28;20080;-30
2023/10/28 09:52:57;;;;;;;2.92;1.60;;;12.90;92.20;;;;;;5031948;28;20030;-31
2023/10/28 09:55:36;;;;;;;2.80;1.30;;;13.00;92.20;;;;;;5031847;28;20029;-32
2023/10/28 09:58:11;;;;;;;6.00;1.95;;;13.00;92.20;;;;;;5030164;28;20039;-33
2023/10/28 10:00:37;;;;;;;5.13;1.73;;;13.10;92.20;;;;;;5031897;28;20525;-32
2023/10/28 10:03:51;;;;;;;3.90;1.58;;;13.10;92.10;;;;;;5031980;28;20026;-31
2023/10/28 10:06:17;;;;;;;3.70;1.55;;;13.20;92.00;;;;;;5032903;28;20116;-36
2023/10/28 10:08:50;;;;;;;5.03;1.50;;;13.20;92.00;;;;;;5031965;28;20116;-33
2023/10/28 10:11:26;;;;;;;4.10;1.60;;;13.20;92.00;;;;;;5031263;28;20036;-31
2023/10/28 10:13:52;;;;;;;5.32;2.03;;;13.20;92.00;;;;;;5031762;28;20532;-34
2023/10/28 10:16:43;;;;;;;4.55;1.77;;;13.20;91.90;;;;;;5031584;28;20029;-34
2023/10/28 10:19:11;;;;;;;3.28;1.50;;;13.20;91.90;;;;;;5031598;28;20378;-34
2023/10/28 10:21:37;;;;;;;2.38;1.40;;;13.20;91.90;;;;;;5031490;28;20034;-29
2023/10/28 10:24:06;;;;;;;6.13;1.60;;;13.20;91.90;;;;;;5031242;28;20245;-29
2023/10/28 10:26:34;;;;;;;3.05;1.80;;;13.20;91.90;;;;;;5031597;28;20088;-29
2023/10/28 10:29:03;;;;;;;5.43;1.60;;;13.20;91.90;;;;;;5031266;28;20391;-31
2023/10/28 10:31:34;;;;;;;4.03;1.45;;;13.30;91.90;;;;;;5031256;28;20029;-34
2023/10/28 10:34:05;;;;;;;4.93;1.55;;;13.30;91.90;;;;;;5029832;28;20044;-34
2023/10/28 10:36:35;;;;;;;3.38;1.60;;;13.30;91.80;;;;;;5031223;28;20029;-34
2023/10/28 10:39:51;;;;;;;2.22;1.17;;;13.30;91.80;;;;;;5030904;28;20017;-35
2023/10/28 10:42:17;;;;;;;3.65;1.40;;;13.30;91.70;;;;;;5031316;28;20046;-32
2023/10/28 10:44:43;;;;;;;4.43;1.50;;;13.40;91.70;;;;;;5030785;28;20072;-31
2023/10/28 10:47:09;;;;;;;3.83;1.33;;;13.40;91.60;;;;;;5030582;28;20052;-34
2023/10/28 10:49:38;;;;;;;4.88;1.60;;;13.50;91.60;;;;;;5029175;28;20029;-30
2023/10/28 10:52:05;;;;;;;3.25;1.70;;;13.50;91.50;;;;;;5030612;28;20116;-33
2023/10/28 10:54:35;;;;;;;3.83;1.40;;;13.50;91.50;;;;;;5030562;28;20026;-34
2023/10/28 10:57:01;;;;;;;3.97;1.30;;;13.60;91.50;;;;;;5030788;28;20033;-30
2023/10/28 10:59:35;;;;;;;3.95;1.20;;;13.60;91.40;;;;;;5030686;28;20070;-35
2023/10/28 11:02:03;;;;;;;3.78;1.30;;;13.70;91.30;;;;;;5029715;28;20496;-33
2023/10/28 11:04:30;;;;;;;3.60;1.42;;;13.60;91.20;;;;;;5030302;28;20449;-36
2023/10/28 11:06:57;;;;;;;4.15;1.48;;;13.70;91.30;;;;;;5030073;28;20057;-32
2023/10/28 11:09:23;;;;;;;3.40;1.20;;;13.60;91.20;;;;;;5030342;28;20048;-36
2023/10/28 11:11:49;;;;;;;4.82;1.20;;;13.70;91.20;;;;;;5030026;28;20113;-34
2023/10/28 11:14:15;;;;;;;4.82;1.40;;;13.70;91.20;;;;;;5030468;28;20366;-33
2023/10/28 11:16:42;;;;;;;2.53;1.05;;;13.60;91.10;;;;;;5029992;28;20024;-37
2023/10/28 11:19:09;;;;;;;2.67;1.15;;;13.60;91.00;;;;;;5028597;28;20029;-36
2023/10/28 11:21:36;;;;;;;5.28;1.25;;;13.70;91.00;;;;;;5030069;28;20638;-31
2023/10/28 11:24:04;;;;;;;2.75;1.08;;;13.70;90.90;;;;;;5030063;28;20207;-35
2023/10/28 11:26:29;;;;;;;4.25;1.20;;;13.70;91.10;;;;;;5029873;28;20478;-32
2023/10/28 11:28:59;;;;;;;4.30;1.48;;;13.70;90.80;;;;;;5029756;28;20091;-33
2023/10/28 11:31:28;;;;;;;2.38;1.30;;;13.80;90.70;;;;;;5029943;28;20041;-31
2023/10/28 11:33:55;;;;;;;5.25;1.40;;;13.90;90.70;;;;;;5030192;28;20096;-32
2023/10/28 11:36:22;;;;;;;2.67;1.40;;;13.90;90.60;;;;;;5028616;28;20018;-34
2023/10/28 11:38:48;;;;;;;3.25;1.30;;;13.90;90.60;;;;;;5029742;28;20454;-36
2023/10/28 11:41:13;;;;;;;3.75;1.40;;;14.00;90.50;;;;;;5029550;28;20049;-33
2023/10/28 11:43:40;;;;;;;3.78;1.27;;;14.00;90.40;;;;;;5029746;28;20072;-36
2023/10/28 11:46:06;;;;;;;4.50;1.27;;;14.10;90.40;;;;;;5029358;28;20083;-36
2023/10/28 11:48:34;;;;;;;6.10;1.75;;;14.10;90.30;;;;;;5029932;28;20045;-31
2023/10/28 11:51:04;;;;;;;3.88;1.20;;;14.20;90.30;;;;;;5029862;28;20040;-35
2023/10/28 11:53:30;;;;;;;2.08;1.05;;;14.20;90.20;;;;;;5029728;28;20458;-36
2023/10/28 11:55:56;;;;;;;3.55;1.55;;;14.20;90.10;;;;;;5030048;28;20025;-32
2023/10/28 11:58:24;;;;;;;4.53;1.30;;;14.20;89.90;;;;;;5029758;28;20477;-31
2023/10/28 12:00:53;;;;;;;9.55;1.50;;;14.20;89.90;;;;;;5029436;28;20028;-31
2023/10/28 12:03:19;;;;;;;5.22;1.40;;;14.20;89.70;;;;;;5028206;28;20121;-36
2023/10/28 12:05:44;;;;;;;6.55;1.75;;;14.30;89.30;;;;;;5029412;28;20080;-33
2023/10/28 12:08:11;;;;;;;4.70;1.20;;;14.30;88.70;;;;;;5029530;28;20038;-31
2023/10/28 12:10:44;;;;;;;4.85;1.63;;;14.30;88.90;;;;;;5029421;28;20064;-33
2023/10/28 12:13:14;;;;;;;3.25;1.30;;;14.40;88.10;;;;;;5028408;28;20109;-31
2023/10/28 12:15:40;;;;;;;4.00;1.20;;;14.40;88.10;;;;;;5029643;28;20022;-29
2023/10/28 12:18:07;;;;;;;5.80;1.60;;;14.40;87.80;;;;;;5029301;28;20063;-32
2023/10/28 12:20:33;;;;;;;6.13;1.90;;;14.40;87.40;;;;;;5029387;28;20108;-31
2023/10/28 12:22:58;;;;;;;3.22;1.30;;;14.40;86.30;;;;;;5029358;28;20109;-34
2023/10/28 12:25:24;;;;;;;4.10;1.17;;;14.40;86.60;;;;;;5029630;28;20025;-35
2023/10/28 12:27:51;;;;;;;4.60;1.35;;;14.50;86.70;;;;;;5029323;28;20109;-33
2023/10/28 12:30:17;;;;;;;5.53;1.92;;;14.60;86.30;;;;;;5029103;28;20188;-31
2023/10/28 12:32:43;;;;;;;4.75;1.48;;;14.70;85.60;;;;;;5029331;28;20048;-34
2023/10/28 12:35:09;;;;;;;6.47;1.60;;;14.80;85.40;;;;;;5029494;28;20009;-31
2023/10/28 12:37:35;;;;;;;6.18;1.38;;;14.80;85.30;;;;;;5029286;28;20458;-38
2023/10/28 12:40:00;;;;;;;6.57;1.70;;;14.90;85.10;;;;;;5029052;28;20053;-35
2023/10/28 12:42:26;;;;;;;5.20;1.50;;;15.00;85.10;;;;;;5028954;28;20028;-30
2023/10/28 12:44:52;;;;;;;6.30;1.55;;;15.10;85.10;;;;;;5028797;28;20045;-35